AirNav   Air Wisconsin pilot careers
 
 727 users online  

5Y3 Gutzmer's Twin Oaks Airport
Whitewater, Wisconsin, USA

GOING TO WHITEWATER?


FAA INFORMATION EFFECTIVE 28 FEBRUARY 2019

Location

FAA Identifier: 5Y3
Lat/Long: 42-51-12.8000N / 088-45-35.3000W
42-51.213333N / 088-45.588333W
42.8535556 / -88.7598056
(estimated)
Elevation: 821 ft. / 250 m (estimated)
Variation: 00W (1985)
From city: 1 mile NW of WHITEWATER, WI
Time zone: UTC -6 (UTC -5 during Daylight Saving Time)
Zip code: 53190

Airport Operations

Airport use: Open to the public
Control tower: no
ARTCC: CHICAGO CENTER
FSS: GREEN BAY FLIGHT SERVICE STATION
NOTAMs facility: GRB (NOTAM-D service available)
Attendance: APR-NOV 0800-SS
Pattern altitude: 1621 ft. MSL
Wind indicator: yes
Segmented circle: no
Lights: SS-SR

Airport Communications

CTAF: 122.9
WX AWOS-3PT at 57C (17 nm E): 118.125 (262-642-1845)
WX AWOS-3 at JVL (19 nm SW): PHONE 608-758-1723
WX AWOS-3 at RYV (19 nm N): 119.975 (920-261-0734)

Nearby radio navigation aids

VOR radial/distance  VOR name  Freq  Var
JVLr038/23.4JANESVILLE VOR/DME114.3003E
BAEr231/26.2BADGER VOR/DME116.4002E
MSNr121/30.9MADISON VORTAC108.6003E

 
NDB name  Hdg/Dist  Freq  Var  ID
LAKE LAWN324/11.840402WLVV .-.. ...- ...-
ROCK RIVER186/19.337101WRYV .-. -.-- ...-
JUNEAU185/34.634401WUNU ..- -. ..-

Airport Services

Parking: tiedowns
Airframe service: NONE
Powerplant service: NONE
Bottled oxygen: NONE
Bulk oxygen: NONE

Runway Information

Runway 18/36

Dimensions: 2523 x 140 ft. / 769 x 43 m
Surface: turf, in good condition
Runway edge lights: non-standard
NSTD LIRL; LGTS FLUSH MOUNTED
Runway edge markings: 18/36 THLDS MKD WITH YELLOW CONES.
Gradient: S
RUNWAY 18  RUNWAY 36
Latitude: 42-51.420937N42-51.005545N
Longitude: 088-45.589023W088-45.588268W
Elevation: 800.6 ft.821.0 ft.
Gradient: 0.8% UP
Traffic pattern: leftleft
Runway heading: 180 magnetic, 180 true000 magnetic, 360 true
Runway end identifier lights: nono
Touchdown point: yes, no lightsyes, no lights
Obstructions: 25 ft. trees, 500 ft. from runway, 125 ft. left of centerline, 20:1 slope to clear22 ft. bldg, 500 ft. from runway, 22:1 slope to clear

Airport Ownership and Management from official FAA records

Ownership: Privately-owned
Owner: M. EUGENE GUTZMER
755 N. TRATT STREET
WHITEWATER, WI 53190
Phone 262-473-4285
Manager: M. EUGENE GUTZMER
755 N. TRATT STREET
WHITEWATER, WI 53190
Phone 262-473-4285
EMAIL ADDRESS: MARCUSTINCHER@TINCHERREALTY.COM (ALL LOWER CASR)

Airport Operational Statistics

Aircraft based on the field: 9
Multi engine airplanes: 1
Ultralights: 8
    
Aircraft operations: avg 57/week *
73% local general aviation
27% transient general aviation
* for 12-month period ending 06 May 2016

Additional Remarks

RY 18/36 NOT PLOWED WINTERS. CLSD TO WHEELED ACFT WHEN RY SNOW COVERED.
EXTENSIVE ULTRALIGHT & HANG GLDR OPNS ON & INVOF.

Instrument Procedures

There are no published instrument procedures at 5Y3.

Some nearby airports with instrument procedures:

61C - Fort Atkinson Municipal Airport (7 nm N)
57C - East Troy Municipal Airport (17 nm E)
KJVL - Southern Wisconsin Regional Airport (19 nm SW)
KRYV - Watertown Municipal Airport (19 nm N)
C02 - Grand Geneva Resort Airport (22 nm SE)
 
Loc | Ops | Rwys | IFR | FBO | Links
Com | Nav | Svcs | Stats | Notes
Area around 5Y3 (Gutzmer's Twin Oaks Airport)
 
Road maps at: MapQuest Bing Google
 
Aerial photo
WARNING: Photo may not be current or correct
Aerial photo of 5Y3 (Gutzmer's Twin Oaks Airport)
Do you have a better or more recent aerial photo of Gutzmer's Twin Oaks Airport that you would like to share? If so, please send us your photo.

 
Sectional chart

 
Airport distance calculator
Flying to Gutzmer's Twin Oaks Airport? Find the distance to fly.

From to 5Y3

Sunrise and sunset
Times for 18-Mar-2019
 Local
(UTC-5)
 Zulu
(UTC)
Morning civil twilight06:3511:35
Sunrise07:0312:03
Sunset19:0400:04
Evening civil twilight19:3200:32

Current date and time
Zulu (UTC)  19-Mar-2019 03:04:09
Local (UTC-5)  18-Mar-2019 22:04:09
 
METAR
K57C 
17nm E 
190255Z AUTO 00000KT 10SM SCT055 M01/M04 A3033 RMK AO2 T10111044
KJVL 
18nm SW 
190255Z AUTO 26003KT 10SM CLR 01/M03 A3034 RMK AO2
KRYV 
19nm N 
190255Z AUTO 00000KT 10SM CLR M02/M03 A3032 RMK AO2 T10211033
KBUU 
23nm SE 
190255Z AUTO 00000KT 10SM BKN055 M03/M05 A3034 RMK AO2 T10351047
KUES 
29nm E 
190255Z AUTO 00000KT 10SM CLR M03/M06 A3034 RMK AO2
KMSN 
31nm NW 
190253Z 24003KT 10SM SCT250 01/M05 A3032 RMK AO2 SLP278 T00111050 53005
KUNU 
34nm N 
190255Z AUTO 00000KT 10SM SCT110 00/M03 A3032 RMK AO2 T10031030 TSNO
TAF
KUES 
29nm E 
182049Z 1821/1918 29010KT P6SM BKN035 FM190000 VRB04KT P6SM FEW035 SCT200 FM191600 24006KT P6SM SCT200
KMSN 
31nm NW 
182049Z 1821/1918 28008KT P6SM SCT045 FM190000 VRB04KT P6SM FEW045 SCT200 FM190500 VRB03KT P6SM SCT200
NOTAMs
Click for the latest NOTAMs
NOTAMs are issued by the DoD/FAA and will open in a separate window not controlled by AirNav.

 

 
 

Would you like to see your business listed on this page?

 If your business provides an interesting product or service to pilots, flight crews, aircraft, or users of the Gutzmer's Twin Oaks Airport, you should consider listing it here.  To start the listing process, click on the button below
 
Add a business
 

Other Pages about Gutzmer's Twin Oaks Airport

Page from the Wisconsin airport directory (PDF)
 
Update a link
 
Copyright © AirNav, LLC. All rights reserved. Privacy Policy  Contact